createdAt,value
2022-11-05T00:00:08.219Z,56.70
2022-11-05T00:00:18.200Z,50.80
2022-11-05T00:00:28.223Z,48.60
2022-11-05T00:00:38.216Z,49.30
2022-11-05T00:00:48.205Z,47.90
2022-11-05T00:00:58.775Z,51.40
2022-11-05T00:01:08.277Z,47.80
2022-11-05T00:01:18.259Z,48.80
2022-11-05T00:01:28.216Z,48.80
2022-11-05T00:01:38.235Z,48.40
2022-11-05T00:01:48.290Z,51.20
2022-11-05T00:01:58.326Z,53.00
2022-11-05T00:02:08.202Z,61.70
2022-11-05T00:02:18.204Z,60.30
2022-11-05T00:02:28.765Z,60.90
2022-11-05T00:02:38.198Z,57.60
2022-11-05T00:02:48.202Z,51.30
2022-11-05T00:02:58.237Z,50.00
2022-11-05T00:03:08.701Z,49.70
2022-11-05T00:03:18.227Z,55.40
2022-11-05T00:03:28.240Z,57.10
2022-11-05T00:03:38.851Z,67.10
2022-11-05T00:03:48.263Z,67.10
2022-11-05T00:03:58.283Z,73.20
2022-11-05T00:04:08.288Z,67.80
2022-11-05T00:04:18.194Z,76.20
2022-11-05T00:04:30.963Z,70.30
2022-11-05T00:04:38.186Z,72.80
2022-11-05T00:04:48.228Z,66.80
2022-11-05T00:04:58.209Z,66.50
2022-11-05T00:05:08.210Z,58.20
2022-11-05T00:05:18.332Z,52.30
2022-11-05T00:05:28.185Z,52.10
2022-11-05T00:05:38.193Z,53.00
2022-11-05T00:05:48.187Z,59.70
2022-11-05T00:06:00.773Z,62.60
2022-11-05T00:06:08.195Z,65.50
2022-11-05T00:06:18.188Z,69.10
2022-11-05T00:06:28.177Z,65.30
2022-11-05T00:06:38.190Z,65.10
2022-11-05T00:06:48.178Z,65.50
2022-11-05T00:06:58.791Z,68.80
2022-11-05T00:07:08.342Z,62.70
2022-11-05T00:07:18.254Z,56.90
2022-11-05T00:07:28.183Z,54.80
2022-11-05T00:07:38.205Z,61.20
2022-11-05T00:07:48.188Z,67.90
2022-11-05T00:07:58.174Z,70.70
2022-11-05T00:08:08.768Z,65.50
2022-11-05T00:08:18.166Z,60.50
2022-11-05T00:08:28.182Z,55.90
2022-11-05T00:08:38.166Z,55.10
2022-11-05T00:08:48.195Z,58.60
2022-11-05T00:08:58.196Z,57.50
2022-11-05T00:09:08.168Z,63.40
2022-11-05T00:09:18.776Z,69.10
2022-11-05T00:09:28.234Z,73.80
2022-11-05T00:09:38.345Z,72.00
2022-11-05T00:09:48.173Z,66.50
2022-11-05T00:09:58.160Z,71.40
2022-11-05T00:10:08.254Z,70.20
2022-11-05T00:10:18.167Z,72.90
2022-11-05T00:10:28.186Z,74.00
2022-11-05T00:10:38.177Z,81.50
2022-11-05T00:10:48.165Z,81.60
2022-11-05T00:10:58.158Z,82.00
2022-11-05T00:11:08.179Z,79.90
2022-11-05T00:11:18.798Z,84.90
2022-11-05T00:11:28.807Z,86.30
2022-11-05T00:11:38.160Z,89.10
2022-11-05T00:11:48.164Z,88.00
2022-11-05T00:11:58.161Z,85.00
2022-11-05T00:12:08.166Z,85.10
2022-11-05T00:12:18.251Z,83.60
2022-11-05T00:12:28.163Z,89.50
2022-11-05T00:12:38.146Z,90.20
2022-11-05T00:12:48.170Z,89.50
2022-11-05T00:12:58.154Z,88.60
2022-11-05T00:13:08.653Z,86.60
2022-11-05T00:13:18.175Z,88.40
2022-11-05T00:13:28.188Z,88.70
2022-11-05T00:13:38.159Z,98.70
2022-11-05T00:13:48.155Z,111.70
2022-11-05T00:13:58.142Z,112.70
2022-11-05T00:14:08.157Z,109.40
2022-11-05T00:14:18.224Z,99.70
2022-11-05T00:14:28.784Z,103.30
2022-11-05T00:14:38.163Z,101.30
2022-11-05T00:14:48.148Z,103.00
2022-11-05T00:14:58.148Z,100.50
2022-11-05T00:15:08.164Z,101.00
2022-11-05T00:15:18.159Z,100.40
2022-11-05T00:15:28.143Z,102.60
2022-11-05T00:15:38.273Z,104.90
2022-11-05T00:15:48.145Z,108.40
2022-11-05T00:15:58.134Z,107.40
2022-11-05T00:16:08.164Z,107.20
2022-11-05T00:16:18.170Z,108.10
2022-11-05T00:16:28.183Z,111.20
2022-11-05T00:16:38.161Z,110.10
2022-11-05T00:16:48.142Z,108.20
2022-11-05T00:16:58.152Z,106.30
2022-11-05T00:17:08.141Z,108.50
2022-11-05T00:17:18.136Z,109.80
2022-11-05T00:17:28.184Z,112.60
2022-11-05T00:17:38.180Z,113.00
2022-11-05T00:17:48.141Z,114.10
2022-11-05T00:17:58.136Z,116.20
2022-11-05T00:18:08.132Z,116.20
2022-11-05T00:18:18.769Z,115.80
2022-11-05T00:18:28.153Z,115.40
2022-11-05T00:18:38.140Z,112.30
2022-11-05T00:18:48.137Z,110.60
2022-11-05T00:18:58.122Z,105.20
2022-11-05T00:19:08.128Z,107.80
2022-11-05T00:19:18.124Z,108.80
2022-11-05T00:19:28.158Z,112.40
2022-11-05T00:19:38.150Z,110.00
2022-11-05T00:19:48.285Z,111.70
2022-11-05T00:19:58.127Z,110.90
2022-11-05T00:20:08.121Z,111.40
2022-11-05T00:20:18.122Z,104.20
2022-11-05T00:20:28.130Z,100.00
2022-11-05T00:20:38.118Z,99.20
2022-11-05T00:20:48.132Z,110.00
2022-11-05T00:20:58.211Z,115.50
2022-11-05T00:21:08.118Z,115.60
2022-11-05T00:21:18.120Z,107.10
2022-11-05T00:21:28.117Z,107.60
2022-11-05T00:21:38.122Z,110.90
2022-11-05T00:21:48.771Z,117.20
2022-11-05T00:21:58.230Z,114.90
2022-11-05T00:22:08.116Z,116.20
2022-11-05T00:22:18.112Z,113.10
2022-11-05T00:22:28.126Z,115.00
2022-11-05T00:22:38.183Z,116.00
2022-11-05T00:22:48.148Z,111.30
2022-11-05T00:22:58.139Z,108.60
2022-11-05T00:23:08.436Z,108.80
2022-11-05T00:23:18.110Z,113.90
2022-11-05T00:23:28.108Z,114.70
2022-11-05T00:23:38.126Z,113.40
2022-11-05T00:23:48.161Z,112.70
2022-11-05T00:23:58.203Z,113.80
2022-11-05T00:24:08.125Z,115.40
2022-11-05T00:24:23.206Z,113.20
2022-11-05T00:24:28.110Z,107.60
2022-11-05T00:24:38.133Z,106.20
2022-11-05T00:24:48.109Z,104.60
2022-11-05T00:24:58.096Z,109.00
2022-11-05T00:25:08.118Z,109.00
2022-11-05T00:25:18.099Z,112.30
2022-11-05T00:25:28.100Z,108.40
2022-11-05T00:25:38.122Z,101.40
2022-11-05T00:25:48.106Z,99.10
2022-11-05T00:25:58.773Z,101.50
2022-11-05T00:26:08.093Z,108.60
2022-11-05T00:26:18.092Z,108.30
2022-11-05T00:26:28.095Z,107.40
2022-11-05T00:26:38.086Z,106.50
2022-11-05T00:26:48.089Z,107.80
2022-11-05T00:26:58.097Z,107.80
2022-11-05T00:27:08.102Z,105.90
2022-11-05T00:27:18.088Z,108.30
2022-11-05T00:27:28.817Z,108.70
2022-11-05T00:27:38.139Z,107.80
2022-11-05T00:27:48.129Z,103.80
2022-11-05T00:27:58.119Z,101.20
2022-11-05T00:28:08.166Z,98.70
2022-11-05T00:28:18.131Z,99.40
2022-11-05T00:28:28.113Z,102.20
2022-11-05T00:28:38.090Z,105.40
2022-11-05T00:28:48.091Z,105.80
2022-11-05T00:28:58.110Z,105.60
2022-11-05T00:29:08.091Z,111.50
2022-11-05T00:29:18.083Z,112.50
2022-11-05T00:29:28.077Z,110.80
2022-11-05T00:29:38.770Z,106.50
2022-11-05T00:29:48.160Z,107.80
2022-11-05T00:29:58.074Z,103.30
2022-11-05T00:30:08.781Z,100.50
2022-11-05T00:30:18.085Z,91.90
2022-11-05T00:30:28.098Z,94.40
2022-11-05T00:30:38.078Z,95.70
2022-11-05T00:30:48.152Z,99.20
2022-11-05T00:30:58.078Z,96.10
2022-11-05T00:31:08.075Z,91.90
2022-11-05T00:31:18.191Z,88.70
2022-11-05T00:31:28.094Z,90.90
2022-11-05T00:31:38.073Z,94.30
2022-11-05T00:31:48.089Z,94.40
2022-11-05T00:31:58.067Z,95.00
2022-11-05T00:32:08.099Z,96.70
2022-11-05T00:32:18.180Z,101.80
2022-11-05T00:32:28.769Z,102.40
2022-11-05T00:32:38.073Z,101.10
2022-11-05T00:32:48.065Z,99.60
2022-11-05T00:32:58.108Z,100.20
2022-11-05T00:33:09.188Z,100.10
2022-11-05T00:33:18.073Z,100.40
2022-11-05T00:33:28.061Z,101.20
2022-11-05T00:33:38.137Z,100.50
2022-11-05T00:33:48.126Z,98.80
2022-11-05T00:33:58.061Z,101.20
2022-11-05T00:34:08.066Z,106.40
2022-11-05T00:34:18.788Z,111.70
2022-11-05T00:34:28.055Z,114.40
2022-11-05T00:34:38.080Z,111.70
2022-11-05T00:34:48.065Z,112.10
2022-11-05T00:34:58.163Z,107.80
2022-11-05T00:35:08.080Z,107.20
2022-11-05T00:35:18.086Z,105.60
2022-11-05T00:35:28.077Z,104.50
2022-11-05T00:35:38.054Z,105.70
2022-11-05T00:35:48.087Z,110.80
2022-11-05T00:35:58.150Z,112.90
2022-11-05T00:36:08.064Z,110.90
2022-11-05T00:36:18.085Z,100.40
2022-11-05T00:36:28.181Z,97.00
2022-11-05T00:36:38.078Z,92.40
2022-11-05T00:36:48.055Z,92.60
2022-11-05T00:36:58.059Z,89.90
2022-11-05T00:37:08.048Z,89.80
2022-11-05T00:37:18.057Z,90.40
2022-11-05T00:37:28.080Z,88.00
2022-11-05T00:37:38.089Z,88.70
2022-11-05T00:37:50.213Z,85.80
2022-11-05T00:37:58.075Z,90.00
2022-11-05T00:38:08.107Z,91.50
2022-11-05T00:38:18.046Z,95.70
2022-11-05T00:38:28.780Z,97.70
2022-11-05T00:38:38.043Z,94.60
2022-11-05T00:38:48.063Z,95.80
2022-11-05T00:38:58.037Z,96.70
2022-11-05T00:39:08.032Z,98.70
2022-11-05T00:39:18.065Z,92.30
2022-11-05T00:39:28.099Z,82.40
2022-11-05T00:39:38.038Z,81.30
2022-11-05T00:39:48.033Z,81.10
2022-11-05T00:39:58.040Z,82.90
2022-11-05T00:40:08.034Z,71.30
2022-11-05T00:40:18.046Z,68.70
2022-11-05T00:40:28.815Z,67.40
2022-11-05T00:40:38.112Z,72.60
2022-11-05T00:40:48.030Z,70.40
2022-11-05T00:40:58.037Z,76.10
2022-11-05T00:41:08.033Z,83.70
2022-11-05T00:41:18.029Z,90.40
2022-11-05T00:41:28.110Z,90.80
2022-11-05T00:41:38.026Z,88.80
2022-11-05T00:41:48.028Z,88.60
2022-11-05T00:41:58.084Z,89.00
2022-11-05T00:42:08.027Z,90.10
2022-11-05T00:42:18.038Z,89.90
2022-11-05T00:42:28.023Z,89.50
2022-11-05T00:42:38.776Z,88.20
2022-11-05T00:42:48.031Z,88.50
2022-11-05T00:42:58.028Z,86.10
2022-11-05T00:43:08.424Z,85.60
2022-11-05T00:43:18.099Z,82.60
2022-11-05T00:43:28.063Z,77.20
2022-11-05T00:43:38.025Z,76.70
2022-11-05T00:43:48.027Z,74.50
2022-11-05T00:43:58.023Z,80.70
2022-11-05T00:44:08.032Z,79.30
2022-11-05T00:44:18.066Z,79.30
2022-11-05T00:44:28.779Z,76.70
2022-11-05T00:44:38.783Z,77.90
2022-11-05T00:44:48.104Z,80.50
2022-11-05T00:44:58.013Z,81.20
2022-11-05T00:45:08.027Z,81.30
2022-11-05T00:45:18.016Z,82.60
2022-11-05T00:45:28.016Z,82.80
2022-11-05T00:45:38.019Z,85.40
2022-11-05T00:45:48.019Z,85.20
2022-11-05T00:45:58.024Z,74.20
2022-11-05T00:46:08.021Z,71.10
2022-11-05T00:46:18.013Z,69.50
2022-11-05T00:46:28.023Z,82.20
2022-11-05T00:46:38.082Z,83.20
2022-11-05T00:46:48.016Z,89.20
2022-11-05T00:46:59.941Z,85.20
2022-11-05T00:47:08.031Z,87.50
2022-11-05T00:47:18.007Z,79.90
2022-11-05T00:47:27.998Z,76.90
2022-11-05T00:47:38.022Z,74.80
2022-11-05T00:47:48.017Z,79.00
2022-11-05T00:47:58.032Z,81.00
2022-11-05T00:48:08.824Z,80.30
2022-11-05T00:48:18.817Z,76.20
2022-11-05T00:48:28.036Z,78.20
2022-11-05T00:48:38.040Z,75.10
2022-11-05T00:48:48.005Z,77.10
2022-11-05T00:48:57.995Z,76.30
2022-11-05T00:49:07.993Z,79.00
2022-11-05T00:49:18.022Z,83.10
2022-11-05T00:49:28.012Z,85.60
2022-11-05T00:49:38.000Z,89.00
2022-11-05T00:49:48.779Z,88.10
2022-11-05T00:49:58.005Z,93.30
2022-11-05T00:50:07.989Z,89.50
2022-11-05T00:50:18.002Z,89.40
2022-11-05T00:50:28.002Z,85.90
2022-11-05T00:50:38.001Z,89.80
2022-11-05T00:50:47.990Z,88.30
2022-11-05T00:50:58.787Z,86.30
2022-11-05T00:51:07.991Z,79.20
2022-11-05T00:51:17.990Z,77.70
2022-11-05T00:51:27.979Z,81.10
2022-11-05T00:51:37.987Z,85.90
2022-11-05T00:51:50.786Z,89.30
2022-11-05T00:51:57.993Z,84.50
2022-11-05T00:52:07.995Z,87.10
2022-11-05T00:52:18.118Z,88.10
2022-11-05T00:52:27.984Z,88.40
2022-11-05T00:52:38.016Z,86.90
2022-11-05T00:52:48.001Z,86.10
2022-11-05T00:52:58.227Z,87.10
2022-11-05T00:53:09.102Z,88.20
2022-11-05T00:53:17.981Z,87.70
2022-11-05T00:53:27.997Z,83.20
2022-11-05T00:53:38.054Z,77.00
2022-11-05T00:53:47.977Z,72.30
2022-11-05T00:53:57.975Z,76.30
2022-11-05T00:54:07.980Z,79.10
2022-11-05T00:54:18.001Z,75.90
2022-11-05T00:54:27.977Z,69.70
2022-11-05T00:54:37.977Z,69.40
2022-11-05T00:54:47.997Z,76.00
2022-11-05T00:54:57.988Z,89.30
2022-11-05T00:55:08.788Z,83.00
2022-11-05T00:55:17.976Z,77.50
2022-11-05T00:55:27.971Z,66.50
2022-11-05T00:55:38.791Z,75.00
2022-11-05T00:55:47.972Z,79.90
2022-11-05T00:55:57.977Z,87.10
2022-11-05T00:56:07.989Z,83.90
2022-11-05T00:56:17.971Z,86.60
2022-11-05T00:56:27.960Z,85.00
2022-11-05T00:56:37.974Z,85.20
2022-11-05T00:56:47.960Z,83.00
2022-11-05T00:57:03.463Z,84.60
2022-11-05T00:57:07.988Z,88.10
2022-11-05T00:57:18.086Z,85.60
2022-11-05T00:57:27.954Z,78.30
2022-11-05T00:57:37.965Z,76.60
2022-11-05T00:57:47.970Z,78.90
2022-11-05T00:57:57.956Z,84.20
2022-11-05T00:58:08.065Z,84.80
2022-11-05T00:58:17.971Z,83.70
2022-11-05T00:58:27.965Z,85.00
2022-11-05T00:58:38.804Z,86.20
2022-11-05T00:58:47.998Z,85.80
2022-11-05T00:58:57.965Z,83.20
2022-11-05T00:59:07.972Z,80.90
2022-11-05T00:59:18.786Z,79.30
2022-11-05T00:59:27.946Z,79.10
2022-11-05T00:59:37.993Z,81.90
2022-11-05T00:59:47.979Z,84.40
2022-11-05T00:59:57.947Z,83.20
2022-11-05T01:00:07.949Z,81.70
2022-11-05T01:00:17.968Z,79.90
2022-11-05T01:00:27.945Z,81.90
2022-11-05T01:00:37.950Z,76.70
2022-11-05T01:00:47.939Z,78.50
2022-11-05T01:00:57.948Z,82.30
2022-11-05T01:01:07.956Z,88.50
2022-11-05T01:01:18.957Z,89.30
2022-11-05T01:01:28.043Z,89.20
2022-11-05T01:01:38.051Z,93.30
2022-11-05T01:01:48.073Z,96.50
2022-11-05T01:01:58.234Z,98.30
2022-11-05T01:02:08.028Z,96.60
2022-11-05T01:02:18.223Z,98.20
2022-11-05T01:02:28.058Z,100.90
2022-11-05T01:02:38.136Z,100.50
2022-11-05T01:02:48.079Z,102.00
2022-11-05T01:02:57.984Z,101.00
2022-11-05T01:03:08.224Z,106.60
2022-11-05T01:03:17.952Z,110.90
2022-11-05T01:03:28.826Z,115.90
2022-11-05T01:03:37.935Z,124.40
2022-11-05T01:03:51.696Z,126.70
2022-11-05T01:03:57.974Z,125.00
2022-11-05T01:04:07.935Z,118.40
2022-11-05T01:04:18.031Z,116.10
2022-11-05T01:04:27.953Z,118.10
2022-11-05T01:04:37.976Z,111.30
2022-11-05T01:04:47.929Z,108.50
2022-11-05T01:04:58.071Z,107.40
2022-11-05T01:05:07.935Z,114.20
2022-11-05T01:05:18.119Z,111.80
2022-11-05T01:05:27.957Z,110.50
2022-11-05T01:05:38.076Z,110.50
2022-11-05T01:05:47.929Z,120.80
2022-11-05T01:05:57.934Z,119.90
2022-11-05T01:06:07.916Z,116.80
2022-11-05T01:06:17.929Z,107.70
2022-11-05T01:06:27.919Z,111.20
2022-11-05T01:06:37.938Z,116.40
2022-11-05T01:06:47.932Z,117.50
2022-11-05T01:06:57.918Z,114.50
2022-11-05T01:07:07.926Z,109.80
2022-11-05T01:07:17.917Z,108.20
2022-11-05T01:07:28.812Z,109.80
2022-11-05T01:07:38.052Z,110.60
2022-11-05T01:07:47.923Z,118.60
2022-11-05T01:07:57.921Z,114.10
2022-11-05T01:08:07.909Z,112.70
2022-11-05T01:08:17.943Z,107.70
2022-11-05T01:08:27.927Z,111.40
2022-11-05T01:08:37.931Z,112.60
2022-11-05T01:08:47.943Z,110.70
2022-11-05T01:08:57.909Z,108.40
2022-11-05T01:09:07.944Z,107.30
2022-11-05T01:09:17.930Z,104.80
2022-11-05T01:09:28.006Z,103.30
2022-11-05T01:09:37.993Z,104.10
2022-11-05T01:09:47.901Z,114.60
2022-11-05T01:09:57.911Z,117.40
2022-11-05T01:10:07.906Z,114.70
2022-11-05T01:10:17.903Z,109.00
2022-11-05T01:10:27.982Z,111.50
2022-11-05T01:10:37.912Z,119.10
2022-11-05T01:10:47.908Z,122.80
2022-11-05T01:10:58.932Z,121.60
2022-11-05T01:11:07.915Z,123.90
2022-11-05T01:11:17.934Z,122.50
2022-11-05T01:11:27.909Z,126.20
2022-11-05T01:11:37.929Z,117.80
2022-11-05T01:11:48.015Z,116.70
2022-11-05T01:11:57.895Z,113.10
2022-11-05T01:12:07.892Z,109.80
2022-11-05T01:12:17.912Z,103.10
2022-11-05T01:12:27.910Z,101.30
2022-11-05T01:12:37.901Z,106.40
2022-11-05T01:12:47.896Z,112.40
2022-11-05T01:12:57.909Z,107.70
2022-11-05T01:13:12.654Z,106.30
2022-11-05T01:13:18.233Z,108.40
2022-11-05T01:13:27.901Z,110.00
2022-11-05T01:13:37.889Z,106.80
2022-11-05T01:13:48.050Z,102.20
2022-11-05T01:13:58.115Z,101.80
2022-11-05T01:14:07.898Z,107.80
2022-11-05T01:14:18.012Z,109.30
2022-11-05T01:14:27.887Z,113.10
2022-11-05T01:14:37.892Z,111.20
2022-11-05T01:14:48.009Z,110.40
2022-11-05T01:14:57.894Z,111.70
2022-11-05T01:15:07.880Z,112.50
2022-11-05T01:15:17.879Z,112.40
2022-11-05T01:15:27.888Z,109.20
2022-11-05T01:15:37.880Z,108.20
2022-11-05T01:15:47.892Z,105.90
2022-11-05T01:15:58.007Z,108.50
2022-11-05T01:16:07.878Z,114.10
2022-11-05T01:16:17.882Z,115.40
2022-11-05T01:16:27.878Z,112.10
2022-11-05T01:16:37.879Z,105.70
2022-11-05T01:16:47.904Z,108.60
2022-11-05T01:16:57.879Z,110.90
2022-11-05T01:17:07.878Z,111.30
2022-11-05T01:17:17.876Z,107.50
2022-11-05T01:17:27.882Z,104.80
2022-11-05T01:17:37.875Z,103.60
2022-11-05T01:17:47.927Z,108.00
2022-11-05T01:17:58.890Z,113.20
2022-11-05T01:18:07.869Z,117.30
2022-11-05T01:18:18.083Z,116.80
2022-11-05T01:18:27.884Z,114.70
2022-11-05T01:18:38.783Z,112.60
2022-11-05T01:18:48.820Z,107.50
2022-11-05T01:18:57.865Z,111.00
2022-11-05T01:19:07.865Z,114.40
2022-11-05T01:19:17.868Z,123.10
2022-11-05T01:19:27.908Z,117.50
2022-11-05T01:19:37.877Z,109.90
2022-11-05T01:19:47.888Z,99.20
2022-11-05T01:19:57.874Z,94.80
2022-11-05T01:20:07.936Z,93.40
2022-11-05T01:20:17.861Z,96.60
2022-11-05T01:20:27.857Z,100.40
2022-11-05T01:20:37.892Z,101.40
2022-11-05T01:20:47.865Z,99.60
2022-11-05T01:20:57.899Z,100.70
2022-11-05T01:21:07.882Z,104.30
2022-11-05T01:21:17.864Z,104.50
2022-11-05T01:21:27.871Z,104.20
2022-11-05T01:21:37.881Z,102.40
2022-11-05T01:21:48.792Z,102.00
2022-11-05T01:21:57.876Z,103.00
2022-11-05T01:22:08.870Z,103.10
2022-11-05T01:22:18.782Z,104.80
2022-11-05T01:22:27.876Z,108.00
2022-11-05T01:22:37.856Z,112.00
2022-11-05T01:22:47.850Z,113.70
2022-11-05T01:22:57.860Z,112.10
2022-11-05T01:23:13.140Z,109.30
2022-11-05T01:23:18.166Z,112.50
2022-11-05T01:23:28.008Z,115.50
2022-11-05T01:23:37.866Z,115.60
2022-11-05T01:23:47.849Z,112.50
2022-11-05T01:23:57.881Z,108.30
2022-11-05T01:24:07.922Z,107.90
2022-11-05T01:24:18.779Z,106.10
2022-11-05T01:24:27.869Z,108.80
2022-11-05T01:24:37.908Z,109.40
2022-11-05T01:24:47.852Z,111.80
2022-11-05T01:24:57.928Z,109.20
2022-11-05T01:25:07.843Z,105.60
2022-11-05T01:25:17.924Z,105.40
2022-11-05T01:25:27.867Z,101.20
2022-11-05T01:25:37.951Z,99.80
2022-11-05T01:25:47.841Z,98.40
2022-11-05T01:25:57.837Z,102.30
2022-11-05T01:26:07.866Z,104.40
2022-11-05T01:26:17.872Z,107.60
2022-11-05T01:26:27.938Z,109.00
2022-11-05T01:26:37.846Z,111.30
2022-11-05T01:26:47.915Z,104.70
2022-11-05T01:26:57.849Z,100.60
2022-11-05T01:27:07.875Z,103.20
2022-11-05T01:27:17.824Z,103.20
2022-11-05T01:27:27.841Z,104.40
2022-11-05T01:27:37.833Z,103.70
2022-11-05T01:27:47.840Z,103.30
2022-11-05T01:27:57.850Z,102.80
2022-11-05T01:28:07.885Z,98.90
2022-11-05T01:28:18.981Z,96.20
2022-11-05T01:28:28.033Z,95.10
2022-11-05T01:28:37.887Z,95.00
2022-11-05T01:28:47.867Z,100.10
2022-11-05T01:28:58.005Z,101.40
2022-11-05T01:29:07.974Z,104.40
2022-11-05T01:29:17.823Z,106.40
2022-11-05T01:29:27.824Z,106.90
2022-11-05T01:29:37.825Z,107.40
2022-11-05T01:29:47.876Z,107.50
2022-11-05T01:29:57.821Z,103.50
2022-11-05T01:30:07.850Z,97.70
2022-11-05T01:30:17.827Z,92.30
2022-11-05T01:30:27.922Z,92.30
2022-11-05T01:30:37.823Z,87.60
2022-11-05T01:30:47.833Z,81.70
2022-11-05T01:30:57.833Z,80.30
2022-11-05T01:31:07.832Z,84.90
2022-11-05T01:31:17.840Z,91.00
2022-11-05T01:31:27.826Z,89.30
2022-11-05T01:31:37.815Z,85.40
2022-11-05T01:31:47.836Z,82.30
2022-11-05T01:31:57.835Z,82.40
2022-11-05T01:32:07.819Z,82.70
2022-11-05T01:32:17.844Z,82.60
2022-11-05T01:32:27.832Z,86.30
2022-11-05T01:32:37.979Z,93.10
2022-11-05T01:32:47.810Z,96.30
2022-11-05T01:32:57.813Z,98.50
2022-11-05T01:33:08.034Z,93.20
2022-11-05T01:33:17.803Z,93.70
2022-11-05T01:33:27.817Z,92.40
2022-11-05T01:33:37.800Z,96.30
2022-11-05T01:33:47.815Z,95.30
2022-11-05T01:33:57.796Z,95.10
2022-11-05T01:34:07.835Z,92.40
2022-11-05T01:34:17.797Z,94.40
2022-11-05T01:34:27.820Z,92.00
2022-11-05T01:34:37.891Z,89.20
2022-11-05T01:34:47.812Z,86.50
2022-11-05T01:34:58.370Z,86.00
2022-11-05T01:35:07.799Z,91.00
2022-11-05T01:35:17.812Z,89.00
2022-11-05T01:35:27.824Z,91.00
2022-11-05T01:35:37.849Z,87.80
2022-11-05T01:35:47.834Z,90.30
2022-11-05T01:35:57.800Z,90.70
2022-11-05T01:36:07.791Z,93.10
2022-11-05T01:36:17.808Z,94.40
2022-11-05T01:36:27.801Z,93.10
2022-11-05T01:36:37.840Z,95.10
2022-11-05T01:36:47.801Z,96.50
2022-11-05T01:36:57.792Z,98.90
2022-11-05T01:37:07.790Z,98.40
2022-11-05T01:37:17.786Z,100.50
2022-11-05T01:37:27.811Z,100.80
2022-11-05T01:37:37.807Z,99.50
2022-11-05T01:37:47.787Z,95.90
2022-11-05T01:37:57.877Z,91.60
2022-11-05T01:38:07.808Z,91.00
2022-11-05T01:38:17.789Z,91.80
2022-11-05T01:38:27.787Z,88.50
2022-11-05T01:38:38.308Z,89.90
2022-11-05T01:38:47.947Z,88.70
2022-11-05T01:38:57.782Z,93.40
2022-11-05T01:39:07.802Z,93.50
2022-11-05T01:39:17.799Z,90.40
2022-11-05T01:39:27.787Z,91.60
2022-11-05T01:39:37.773Z,91.90
2022-11-05T01:39:47.799Z,94.40
2022-11-05T01:39:57.778Z,93.10
2022-11-05T01:40:08.022Z,95.40
2022-11-05T01:40:17.794Z,98.90
2022-11-05T01:40:27.786Z,100.20
2022-11-05T01:40:37.772Z,96.10
2022-11-05T01:40:48.297Z,87.40
2022-11-05T01:40:57.901Z,89.80
2022-11-05T01:41:07.774Z,91.40
2022-11-05T01:41:17.766Z,94.60
2022-11-05T01:41:27.787Z,89.50
2022-11-05T01:41:38.299Z,91.10
2022-11-05T01:41:47.779Z,94.30
2022-11-05T01:41:57.779Z,91.70
2022-11-05T01:42:07.772Z,86.80
2022-11-05T01:42:17.774Z,80.20
2022-11-05T01:42:27.799Z,81.30
2022-11-05T01:42:37.790Z,84.20
2022-11-05T01:42:47.910Z,89.00
2022-11-05T01:42:57.864Z,91.50
2022-11-05T01:43:08.030Z,91.00
2022-11-05T01:43:17.768Z,94.80
2022-11-05T01:43:28.769Z,97.00
2022-11-05T01:43:37.854Z,95.40
2022-11-05T01:43:47.783Z,90.50
2022-11-05T01:43:57.821Z,85.40
2022-11-05T01:44:07.777Z,86.60
2022-11-05T01:44:17.771Z,85.70
2022-11-05T01:44:27.760Z,82.80
2022-11-05T01:44:37.786Z,83.20
2022-11-05T01:44:47.765Z,88.10
2022-11-05T01:44:58.312Z,94.40
2022-11-05T01:45:07.753Z,99.70
2022-11-05T01:45:17.808Z,98.70
2022-11-05T01:45:27.772Z,98.20
2022-11-05T01:45:37.747Z,94.20
2022-11-05T01:45:47.759Z,92.60
2022-11-05T01:45:57.776Z,91.00
2022-11-05T01:46:07.762Z,93.50
2022-11-05T01:46:17.841Z,92.00
2022-11-05T01:46:27.776Z,91.40
2022-11-05T01:46:37.755Z,87.80
2022-11-05T01:46:47.750Z,86.10
2022-11-05T01:46:57.776Z,86.70
2022-11-05T01:47:07.821Z,89.60
2022-11-05T01:47:17.767Z,96.90
2022-11-05T01:47:27.783Z,103.40
2022-11-05T01:47:37.750Z,105.90
2022-11-05T01:47:47.756Z,111.70
2022-11-05T01:47:57.758Z,116.00
2022-11-05T01:48:07.763Z,115.60
2022-11-05T01:48:17.751Z,106.30
2022-11-05T01:48:27.801Z,100.40
2022-11-05T01:48:37.766Z,102.90
2022-11-05T01:48:47.737Z,112.10
2022-11-05T01:49:02.979Z,118.80
2022-11-05T01:49:07.805Z,123.20
2022-11-05T01:49:18.291Z,122.40
2022-11-05T01:49:27.739Z,121.60
2022-11-05T01:49:37.743Z,115.90
2022-11-05T01:49:47.753Z,111.40
2022-11-05T01:49:57.740Z,110.40
2022-11-05T01:50:07.736Z,112.70
2022-11-05T01:50:17.765Z,117.70
2022-11-05T01:50:27.815Z,120.90
2022-11-05T01:50:37.733Z,120.70
2022-11-05T01:50:48.300Z,127.10
2022-11-05T01:50:57.743Z,129.10
2022-11-05T01:51:07.740Z,133.80
2022-11-05T01:51:17.819Z,121.80
2022-11-05T01:51:27.909Z,112.10
2022-11-05T01:51:37.736Z,104.00
2022-11-05T01:51:47.723Z,102.10
2022-11-05T01:51:57.718Z,103.20
2022-11-05T01:52:07.764Z,101.60
2022-11-05T01:52:18.317Z,105.50
2022-11-05T01:52:27.735Z,108.60
2022-11-05T01:52:37.727Z,106.00
2022-11-05T01:52:47.721Z,103.30
2022-11-05T01:52:57.861Z,105.00
2022-11-05T01:53:08.091Z,110.00
2022-11-05T01:53:18.303Z,114.00
2022-11-05T01:53:27.725Z,107.10
2022-11-05T01:53:37.718Z,105.60
2022-11-05T01:53:47.731Z,102.40
2022-11-05T01:53:57.726Z,104.60
2022-11-05T01:54:07.733Z,109.30
2022-11-05T01:54:17.730Z,109.10
2022-11-05T01:54:27.734Z,114.30
2022-11-05T01:54:37.707Z,117.20
2022-11-05T01:54:47.739Z,125.50
2022-11-05T01:54:57.706Z,120.40
2022-11-05T01:55:07.816Z,109.70
2022-11-05T01:55:17.723Z,101.20
2022-11-05T01:55:27.790Z,95.50
2022-11-05T01:55:37.761Z,98.50
2022-11-05T01:55:47.708Z,100.00
2022-11-05T01:55:57.739Z,106.50
2022-11-05T01:56:07.710Z,104.80
2022-11-05T01:56:18.299Z,105.70
2022-11-05T01:56:27.709Z,103.70
2022-11-05T01:56:37.743Z,102.30
2022-11-05T01:56:47.713Z,97.80
2022-11-05T01:56:57.718Z,96.60
2022-11-05T01:57:07.705Z,102.50
2022-11-05T01:57:17.769Z,105.90
2022-11-05T01:57:28.323Z,109.30
2022-11-05T01:57:37.728Z,109.30
2022-11-05T01:57:47.714Z,112.30
2022-11-05T01:57:57.747Z,107.30
2022-11-05T01:58:07.707Z,99.80
2022-11-05T01:58:17.695Z,100.20
2022-11-05T01:58:27.703Z,103.00
2022-11-05T01:58:37.694Z,107.90
2022-11-05T01:58:47.700Z,102.70
2022-11-05T01:58:57.695Z,92.70
2022-11-05T01:59:07.694Z,85.40
2022-11-05T01:59:17.716Z,79.00
2022-11-05T01:59:28.318Z,83.40
2022-11-05T01:59:37.768Z,89.90
2022-11-05T01:59:48.306Z,93.70
2022-11-05T01:59:57.717Z,96.00
2022-11-05T02:00:07.699Z,97.30
2022-11-05T02:00:17.735Z,100.30
2022-11-05T02:00:27.824Z,100.20
2022-11-05T02:00:37.696Z,97.50
2022-11-05T02:00:47.775Z,98.10
2022-11-05T02:00:57.707Z,98.90
2022-11-05T02:01:07.682Z,96.40
2022-11-05T02:01:18.513Z,94.60
2022-11-05T02:01:27.854Z,102.80
2022-11-05T02:01:37.864Z,106.10
2022-11-05T02:01:47.872Z,107.30
2022-11-05T02:01:57.784Z,97.50
2022-11-05T02:02:07.919Z,89.70
2022-11-05T02:02:17.865Z,89.80
2022-11-05T02:02:27.838Z,92.60
2022-11-05T02:02:37.872Z,95.70
2022-11-05T02:02:47.809Z,93.20
2022-11-05T02:02:57.773Z,89.10
2022-11-05T02:03:08.680Z,93.70
2022-11-05T02:03:18.314Z,94.30
2022-11-05T02:03:27.689Z,93.90
2022-11-05T02:03:38.335Z,91.30
2022-11-05T02:03:48.299Z,91.60
2022-11-05T02:03:57.731Z,94.30
2022-11-05T02:04:07.695Z,93.40
2022-11-05T02:04:17.754Z,92.40
2022-11-05T02:04:27.684Z,96.10
2022-11-05T02:04:37.688Z,101.20
2022-11-05T02:04:47.677Z,104.90
2022-11-05T02:04:57.686Z,104.50
2022-11-05T02:05:07.662Z,102.00
2022-11-05T02:05:18.309Z,94.40
2022-11-05T02:05:27.669Z,89.10
2022-11-05T02:05:38.326Z,89.80
2022-11-05T02:05:48.301Z,92.70
2022-11-05T02:05:58.371Z,93.90
2022-11-05T02:06:07.667Z,86.70
2022-11-05T02:06:17.673Z,72.20
2022-11-05T02:06:27.783Z,51.60
2022-11-05T02:06:37.700Z,43.20
2022-11-05T02:06:47.681Z,42.70
2022-11-05T02:06:57.667Z,42.10